Time,TemperatureF,DewpointF,PressureIn,WindDirection,WindDirectionDegrees,WindSpeedMPH,WindSpeedGustMPH,Humidity,HourlyPrecipIn,Conditions,Clouds,dailyrainin,SoftwareType,DateUTC
2013-04-08 00:07:00,56.3,54.0,29.78,SW,225,0.0,-999.0,92,-99.99,,,0.00,Acu-Link.com,2013-04-08 04:07:00,
2013-04-08 00:22:00,56.5,54.2,29.78,SSW,202,0.0,-999.0,92,-99.99,,,0.00,Acu-Link.com,2013-04-08 04:22:00,
2013-04-08 00:37:00,56.3,54.0,29.78,South,180,0.0,-999.0,92,-99.99,,,0.00,Acu-Link.com,2013-04-08 04:37:00,
2013-04-08 00:52:00,55.9,53.6,29.78,SSW,202,0.0,-999.0,92,-99.99,,,0.00,Acu-Link.com,2013-04-08 04:52:00,
2013-04-08 01:07:00,55.4,53.7,29.77,SSW,202,0.0,-999.0,94,-99.99,,,0.00,Acu-Link.com,2013-04-08 05:07:00,
2013-04-08 01:23:00,54.9,53.2,29.77,SSE,157,0.0,-999.0,94,-99.99,,,0.00,Acu-Link.com,2013-04-08 05:23:00,
2013-04-08 01:38:00,54.1,52.7,29.77,NNW,337,0.0,-999.0,95,-99.99,,,0.00,Acu-Link.com,2013-04-08 05:38:00,
2013-04-08 01:53:00,53.4,52.3,29.77,South,180,0.0,-999.0,96,-99.99,,,0.00,Acu-Link.com,2013-04-08 05:53:00,
2013-04-08 02:08:00,52.7,51.9,29.76,WNW,292,0.0,-999.0,97,-99.99,,,0.00,Acu-Link.com,2013-04-08 06:08:00,
2013-04-08 02:23:00,52.3,51.8,29.77,NNW,337,0.0,-999.0,98,-99.99,,,0.00,Acu-Link.com,2013-04-08 06:23:00,
2013-04-08 03:09:00,53.8,53.2,29.77,South,180,0.0,-999.0,98,-99.99,,,0.00,Acu-Link.com,2013-04-08 07:09:00,
2013-04-08 03:24:00,54.1,53.5,29.77,SW,225,0.0,-999.0,98,-99.99,,,0.00,Acu-Link.com,2013-04-08 07:24:00,
2013-04-08 03:39:00,54.1,53.5,29.77,South,180,0.0,-999.0,98,-99.99,,,0.00,Acu-Link.com,2013-04-08 07:39:00,
2013-04-08 03:54:00,54.1,53.5,29.76,West,270,0.0,-999.0,98,-99.99,,,0.00,Acu-Link.com,2013-04-08 07:54:00,
2013-04-08 04:09:00,54.1,53.5,29.76,NNW,337,0.0,-999.0,98,-99.99,,,0.00,Acu-Link.com,2013-04-08 08:09:00,
2013-04-08 04:40:00,53.6,53.0,29.76,NNW,337,0.0,-999.0,98,-99.99,,,0.00,Acu-Link.com,2013-04-08 08:40:00,
2013-04-08 04:55:00,53.2,52.6,29.76,SSE,157,0.0,-999.0,98,-99.99,,,0.00,Acu-Link.com,2013-04-08 08:55:00,
2013-04-08 05:10:00,52.9,52.4,29.77,SSW,202,0.0,-999.0,98,-99.99,,,0.00,Acu-Link.com,2013-04-08 09:10:00,
2013-04-08 05:25:00,52.5,52.0,29.77,South,180,0.0,-999.0,98,-99.99,,,0.00,Acu-Link.com,2013-04-08 09:25:00,
2013-04-08 05:40:00,52.2,51.7,29.78,WSW,247,0.0,-999.0,98,-99.99,,,0.00,Acu-Link.com,2013-04-08 09:40:00,
2013-04-08 05:55:00,52.5,52.0,29.78,SSW,202,0.0,-999.0,98,-99.99,,,0.00,Acu-Link.com,2013-04-08 09:55:00,
2013-04-08 06:10:00,53.4,52.8,29.78,SSW,202,0.0,-999.0,98,-99.99,,,0.00,Acu-Link.com,2013-04-08 10:10:00,
2013-04-08 06:26:00,53.4,52.8,29.79,SSW,202,0.0,-999.0,98,-99.99,,,0.00,Acu-Link.com,2013-04-08 10:26:00,
2013-04-08 07:41:00,54.0,53.4,29.82,South,180,0.0,-999.0,98,-99.99,,,0.00,Acu-Link.com,2013-04-08 11:41:00,
2013-04-08 08:27:00,56.5,55.9,29.83,SW,225,1.1,-999.0,98,-99.99,,,0.00,Acu-Link.com,2013-04-08 12:27:00,
2013-04-08 08:42:00,58.5,57.1,29.82,West,270,0.0,-999.0,95,-99.99,,,0.00,Acu-Link.com,2013-04-08 12:42:00,
2013-04-08 08:57:00,62.2,58.9,29.82,South,180,3.7,-999.0,89,-99.99,,,0.00,Acu-Link.com,2013-04-08 12:57:00,
2013-04-08 09:12:00,65.7,60.7,29.83,South,180,6.8,-999.0,84,-99.99,,,0.00,Acu-Link.com,2013-04-08 13:12:00,
2013-04-08 09:27:00,67.3,61.3,29.82,SSW,202,5.3,-999.0,81,-99.99,,,0.00,Acu-Link.com,2013-04-08 13:27:00,
2013-04-08 09:42:00,67.1,60.7,29.83,SSW,202,7.3,-999.0,80,-99.99,,,0.00,Acu-Link.com,2013-04-08 13:42:00,
2013-04-08 09:57:00,67.3,60.9,29.83,SSE,157,8.9,-999.0,80,-99.99,,,0.00,Acu-Link.com,2013-04-08 13:57:00,
2013-04-08 10:12:00,67.6,60.5,29.82,SSW,202,9.9,-999.0,78,-99.99,,,0.00,Acu-Link.com,2013-04-08 14:12:00,
2013-04-08 10:27:00,68.7,60.8,29.82,SSE,157,8.3,-999.0,76,-99.99,,,0.00,Acu-Link.com,2013-04-08 14:27:00,
2013-04-08 10:42:00,69.8,61.5,29.83,WNW,292,9.4,-999.0,75,-99.99,,,0.00,Acu-Link.com,2013-04-08 14:42:00,
2013-04-08 10:58:00,69.6,60.9,29.83,South,180,4.7,-999.0,74,-99.99,,,0.00,Acu-Link.com,2013-04-08 14:58:00,
2013-04-08 11:13:00,69.8,61.1,29.84,SSW,202,8.3,-999.0,74,-99.99,,,0.00,Acu-Link.com,2013-04-08 15:13:00,
2013-04-08 11:28:00,70.3,60.4,29.84,SSW,202,13.5,-999.0,71,-99.99,,,0.00,Acu-Link.com,2013-04-08 15:28:00,
2013-04-08 11:43:00,72.7,61.9,29.84,SW,225,5.8,-999.0,69,-99.99,,,0.00,Acu-Link.com,2013-04-08 15:43:00,
2013-04-08 11:58:00,73.4,62.2,29.84,WSW,247,3.2,-999.0,68,-99.99,,,0.00,Acu-Link.com,2013-04-08 15:58:00,
2013-04-08 12:44:00,71.8,60.7,29.83,SSW,202,9.4,-999.0,68,-99.99,,,0.00,Acu-Link.com,2013-04-08 16:44:00,
2013-04-08 12:59:00,73.8,61.7,29.82,South,180,14.5,-999.0,66,-99.99,,,0.00,Acu-Link.com,2013-04-08 16:59:00,
2013-04-08 13:14:00,73.2,61.6,29.82,South,180,5.8,-999.0,67,-99.99,,,0.00,Acu-Link.com,2013-04-08 17:14:00,
2013-04-08 13:29:00,76.8,62.3,29.81,SSW,202,11.9,-999.0,61,-99.99,,,0.00,Acu-Link.com,2013-04-08 17:29:00,
2013-04-08 13:44:00,75.6,62.5,29.80,SSW,202,11.4,-999.0,64,-99.99,,,0.00,Acu-Link.com,2013-04-08 17:44:00,
2013-04-08 14:14:00,75.6,61.6,29.80,SSW,202,13.0,-999.0,62,-99.99,,,0.00,Acu-Link.com,2013-04-08 18:14:00,
2013-04-08 14:30:00,76.5,62.0,29.80,South,180,6.8,-999.0,61,-99.99,,,0.00,Acu-Link.com,2013-04-08 18:30:00,
2013-04-08 14:45:00,75.7,61.3,29.79,SSW,202,13.5,-999.0,61,-99.99,,,0.00,Acu-Link.com,2013-04-08 18:45:00,
2013-04-08 15:15:00,76.3,61.4,29.79,SSW,202,7.8,-999.0,60,-99.99,,,0.00,Acu-Link.com,2013-04-08 19:15:00,
2013-04-08 15:30:00,79.0,61.4,29.77,South,180,10.9,-999.0,55,-99.99,,,0.00,Acu-Link.com,2013-04-08 19:30:00,
2013-04-08 15:45:00,77.7,61.2,29.77,SSW,202,5.3,-999.0,57,-99.99,,,0.00,Acu-Link.com,2013-04-08 19:45:00,
2013-04-08 16:00:00,76.6,60.7,29.77,South,180,6.8,-999.0,58,-99.99,,,0.00,Acu-Link.com,2013-04-08 20:00:00,
2013-04-08 16:15:00,76.6,60.7,29.77,SSW,202,5.8,-999.0,58,-99.99,,,0.00,Acu-Link.com,2013-04-08 20:15:00,
2013-04-08 16:30:00,76.6,60.7,29.77,SSW,202,1.7,-999.0,58,-99.99,,,0.00,Acu-Link.com,2013-04-08 20:30:00,
2013-04-08 16:46:00,76.3,60.4,29.76,SSW,202,3.7,-999.0,58,-99.99,,,0.00,Acu-Link.com,2013-04-08 20:46:00,
2013-04-08 17:01:00,77.7,61.7,29.76,NNW,337,2.2,-999.0,58,-99.99,,,0.00,Acu-Link.com,2013-04-08 21:01:00,
2013-04-08 17:31:00,77.0,60.6,29.75,NW,315,4.2,-999.0,57,-99.99,,,0.00,Acu-Link.com,2013-04-08 21:31:00,
2013-04-08 18:01:00,78.3,60.8,29.75,SSW,202,10.4,-999.0,55,-99.99,,,0.00,Acu-Link.com,2013-04-08 22:01:00,
2013-04-08 18:46:00,76.3,60.4,29.74,SSW,202,8.3,-999.0,58,-99.99,,,0.00,Acu-Link.com,2013-04-08 22:46:00,
2013-04-08 19:02:00,75.7,60.3,29.74,SSW,202,7.8,-999.0,59,-99.99,,,0.00,Acu-Link.com,2013-04-08 23:02:00,
2013-04-08 19:17:00,75.7,60.3,29.75,SSW,202,10.4,-999.0,59,-99.99,,,0.00,Acu-Link.com,2013-04-08 23:17:00,
2013-04-08 19:32:00,75.2,60.3,29.74,SSW,202,4.7,-999.0,60,-99.99,,,0.00,Acu-Link.com,2013-04-08 23:32:00,
2013-04-08 19:47:00,74.3,60.0,29.74,SSW,202,2.7,-999.0,61,-99.99,,,0.00,Acu-Link.com,2013-04-08 23:47:00,
2013-04-08 20:02:00,73.4,60.0,29.73,West,270,0.0,-999.0,63,-99.99,,,0.00,Acu-Link.com,2013-04-09 00:02:00,
2013-04-08 20:17:00,71.2,60.1,29.74,SSE,157,0.0,-999.0,68,-99.99,,,0.00,Acu-Link.com,2013-04-09 00:17:00,
2013-04-08 20:32:00,69.4,60.0,29.74,South,180,0.0,-999.0,72,-99.99,,,0.00,Acu-Link.com,2013-04-09 00:32:00,
2013-04-08 20:47:00,67.8,59.6,29.73,WSW,247,0.0,-999.0,75,-99.99,,,0.00,Acu-Link.com,2013-04-09 00:47:00,
2013-04-08 21:02:00,66.6,59.5,29.74,NW,315,0.0,-999.0,78,-99.99,,,0.00,Acu-Link.com,2013-04-09 01:02:00,
2013-04-08 21:18:00,64.8,58.8,29.75,WNW,292,0.0,-999.0,81,-99.99,,,0.00,Acu-Link.com,2013-04-09 01:18:00,
2013-04-08 21:48:00,62.8,58.2,29.76,East,90,0.0,-999.0,85,-99.99,,,0.00,Acu-Link.com,2013-04-09 01:48:00,
2013-04-08 22:03:00,61.9,58.0,29.77,WNW,292,0.0,-999.0,87,-99.99,,,0.00,Acu-Link.com,2013-04-09 02:03:00,
2013-04-08 22:18:00,61.3,58.6,29.77,South,180,0.0,-999.0,91,-99.99,,,0.00,Acu-Link.com,2013-04-09 02:18:00,
2013-04-08 22:49:00,59.9,57.6,29.78,West,270,0.0,-999.0,92,-99.99,,,0.00,Acu-Link.com,2013-04-09 02:49:00,
2013-04-08 23:19:00,59.0,57.0,29.77,WNW,292,0.0,-999.0,93,-99.99,,,0.00,Acu-Link.com,2013-04-09 03:19:00,
2013-04-08 23:49:00,58.1,57.0,29.78,South,180,0.0,-999.0,96,-99.99,,,0.00,Acu-Link.com,2013-04-09 03:49:00,